OOMS 251700Z 2518/2624 21005KT 8000 NSC BECMG 2606/2608 05012KT BECMG 2618/2620 21006KT